Time;durP1;ratioP1;P1;durP2;ratioP2;P2;SDS_P1;SDS_P2;PMS_P1;PMS_P2;Temp;Humidity;BMP_temperature;BMP_pressure;BME280_temperature;BME280_humidity;BME280_pressure;Samples;Min_cycle;Max_cycle;Signal;HPM_P1;HPM_P2
2023/12/06 00:00:51;;;;;;;1.10;0.75;;;;;;;13.29;100.00;100918.50;10447957;28;20072;-82
2023/12/06 00:05:53;;;;;;;2.05;1.25;;;;;;;13.73;100.00;100912.28;10464283;28;20049;-82
2023/12/06 00:10:55;;;;;;;0.20;0.20;;;;;;;12.90;100.00;100911.84;10460263;28;20387;-82
2023/12/06 00:15:57;;;;;;;2.55;1.92;;;;;;;14.19;100.00;100911.94;10440912;28;20052;-82
2023/12/06 00:20:58;;;;;;;2.65;1.17;;;;;;;13.69;100.00;100916.53;10440618;28;20407;-82
2023/12/06 00:26:00;;;;;;;0.05;0.05;;;;;;;12.88;100.00;100918.75;10440920;28;20131;-82
2023/12/06 00:31:02;;;;;;;2.13;1.60;;;;;;;13.40;100.00;100923.88;10442224;28;20052;-82
2023/12/06 00:36:04;;;;;;;2.92;0.75;;;;;;;12.83;100.00;100934.19;10462805;28;20049;-82
2023/12/06 00:41:06;;;;;;;2.28;1.40;;;;;;;13.07;100.00;100938.88;10439402;28;20069;-82
2023/12/06 00:46:08;;;;;;;1.17;1.10;;;;;;;13.19;100.00;100951.16;10473413;28;20439;-83
2023/12/06 00:51:10;;;;;;;1.50;0.93;;;;;;;12.96;100.00;100948.16;10464686;28;20044;-83
2023/12/06 00:56:13;;;;;;;0.65;0.60;;;;;;;13.17;100.00;100952.81;10420245;28;20107;-82
2023/12/06 01:01:15;;;;;;;2.55;1.98;;;;;;;13.90;100.00;100959.94;10450150;28;20036;-82
2023/12/06 01:06:17;;;;;;;3.97;3.20;;;;;;;12.99;100.00;100963.75;10436834;28;20076;-82
2023/12/06 01:11:19;;;;;;;1.92;1.70;;;;;;;13.72;100.00;100965.75;10441199;28;20407;-82
2023/12/06 01:16:20;;;;;;;4.28;0.88;;;;;;;13.55;100.00;100975.00;10439112;28;20041;-82
2023/12/06 01:21:22;;;;;;;0.82;0.82;;;;;;;13.31;100.00;100982.38;10418518;28;20132;-82
2023/12/06 01:26:24;;;;;;;5.60;1.60;;;;;;;13.42;100.00;100984.31;10457291;28;20407;-82
2023/12/06 01:31:27;;;;;;;0.60;0.60;;;;;;;13.94;100.00;100979.88;10422886;28;20412;-83
2023/12/06 01:36:29;;;;;;;0.47;0.22;;;;;;;13.80;100.00;100992.63;10473200;28;20048;-83
2023/12/06 01:41:31;;;;;;;1.65;1.20;;;;;;;13.09;100.00;101001.84;10422450;28;20048;-82
2023/12/06 01:46:32;;;;;;;1.23;1.10;;;;;;;13.01;100.00;101009.47;10458133;28;20482;-82
2023/12/06 01:51:34;;;;;;;1.33;1.23;;;;;;;13.17;100.00;101009.75;10471228;28;20110;-82
2023/12/06 01:56:38;;;;;;;0.85;0.85;;;;;;;13.40;100.00;101017.03;10430287;28;20546;-83
2023/12/06 02:01:40;;;;;;;2.45;1.08;;;;;;;12.33;100.00;101028.00;10437518;28;20064;-82
2023/12/06 02:06:42;;;;;;;0.73;0.73;;;;;;;12.90;100.00;101030.81;10461609;28;20048;-82
2023/12/06 02:11:44;;;;;;;1.52;1.33;;;;;;;13.49;100.00;101027.56;10418951;28;20041;-83
2023/12/06 02:16:46;;;;;;;0.10;0.10;;;;;;;14.09;100.00;101035.31;10443437;28;20045;-83
2023/12/06 02:21:49;;;;;;;0.45;0.45;;;;;;;13.31;100.00;101034.13;10450045;28;20053;-83
2023/12/06 02:26:54;;;;;;;0.28;0.17;;;;;;;14.01;100.00;101031.75;10429141;28;20137;-83
2023/12/06 02:31:55;;;;;;;0.40;0.40;;;;;;;13.62;100.00;101029.47;10434683;28;20079;-83
2023/12/06 02:37:03;;;;;;;0.20;0.20;;;;;;;13.74;100.00;101033.09;10438046;28;20047;-83
2023/12/06 02:42:05;;;;;;;0.75;0.68;;;;;;;12.45;100.00;101048.06;10481712;28;20037;-82
2023/12/06 02:47:07;;;;;;;0.85;0.85;;;;;;;13.11;100.00;101045.84;10424618;28;20075;-82
2023/12/06 02:52:12;;;;;;;0.77;0.77;;;;;;;13.37;100.00;101048.88;10460840;28;20136;-82
2023/12/06 02:57:14;;;;;;;0.15;0.15;;;;;;;13.29;100.00;101051.31;10427706;28;20477;-83
2023/12/06 03:02:16;;;;;;;0.38;0.38;;;;;;;12.41;100.00;101057.47;10450343;28;20644;-83
2023/12/06 03:07:18;;;;;;;0.50;0.50;;;;;;;12.17;100.00;101061.25;10460853;28;20563;-82
2023/12/06 03:12:20;;;;;;;0.35;0.35;;;;;;;13.04;100.00;101051.75;10456768;28;20048;-83
2023/12/06 03:17:22;;;;;;;0.20;0.20;;;;;;;13.81;100.00;101045.31;10468867;28;20044;-83
2023/12/06 03:22:25;;;;;;;2.70;0.95;;;;;;;13.13;100.00;101054.53;10448410;28;20045;-82
2023/12/06 03:27:27;;;;;;;0.80;0.80;;;;;;;14.06;100.00;101046.53;10453121;28;20488;-83
2023/12/06 03:32:29;;;;;;;3.95;2.35;;;;;;;13.01;100.00;101066.38;10474718;28;20135;-83
2023/12/06 03:37:31;;;;;;;0.43;0.32;;;;;;;13.93;100.00;101062.72;10458365;28;20068;-83
2023/12/06 03:42:33;;;;;;;1.55;0.95;;;;;;;12.65;100.00;101067.41;10456184;28;20047;-82
2023/12/06 03:47:35;;;;;;;0.70;0.43;;;;;;;13.32;100.00;101074.69;10442952;28;20462;-82
2023/12/06 03:52:37;;;;;;;12.05;3.72;;;;;;;14.40;100.00;101072.00;10459744;28;20044;-83
2023/12/06 03:57:39;;;;;;;0.68;0.68;;;;;;;13.77;100.00;101071.97;10459752;28;20121;-82
2023/12/06 04:02:41;;;;;;;0.00;0.00;;;;;;;14.03;100.00;101074.09;10477012;28;20041;-83
2023/12/06 04:07:43;;;;;;;1.38;1.27;;;;;;;14.16;100.00;101070.84;10425131;28;20462;-82
2023/12/06 04:12:44;;;;;;;0.43;0.43;;;;;;;13.91;100.00;101078.25;10468302;28;20080;-82
2023/12/06 04:17:46;;;;;;;0.65;0.65;;;;;;;13.92;100.00;101073.94;10442258;28;20037;-82
2023/12/06 04:22:49;;;;;;;1.55;1.23;;;;;;;13.74;100.00;101071.91;10457282;28;20487;-81
2023/12/06 04:27:50;;;;;;;0.38;0.38;;;;;;;14.28;100.00;101083.94;10467620;28;20083;-82
2023/12/06 04:32:52;;;;;;;0.40;0.20;;;;;;;13.54;100.00;101084.56;10461862;28;20033;-82
2023/12/06 04:37:54;;;;;;;1.27;0.98;;;;;;;13.35;100.00;101096.28;10452122;28;20048;-82
2023/12/06 04:42:56;;;;;;;0.50;0.50;;;;;;;12.89;100.00;101112.69;10430501;28;20040;-82
2023/12/06 04:47:57;;;;;;;0.47;0.47;;;;;;;13.74;100.00;101103.88;10474485;28;20480;-81
2023/12/06 04:52:59;;;;;;;0.90;0.88;;;;;;;14.05;100.00;101111.25;10462812;28;20077;-82
2023/12/06 04:58:01;;;;;;;1.23;1.15;;;;;;;12.54;100.00;101115.44;10462760;28;20127;-81
2023/12/06 05:03:03;;;;;;;2.92;1.45;;;;;;;12.91;100.00;101121.38;10455029;28;20033;-83
2023/12/06 05:08:05;;;;;;;0.55;0.52;;;;;;;13.54;100.00;101120.81;10461730;28;20045;-83
2023/12/06 05:13:07;;;;;;;1.17;1.00;;;;;;;13.48;100.00;101121.56;10429788;28;20075;-82
2023/12/06 05:18:09;;;;;;;0.50;0.50;;;;;;;14.33;100.00;101132.41;10432533;28;20049;-82
2023/12/06 05:23:11;;;;;;;1.45;0.50;;;;;;;14.46;100.00;101136.88;10442338;28;20048;-82
2023/12/06 05:28:13;;;;;;;0.32;0.32;;;;;;;16.12;100.00;101134.28;10452787;28;20044;-82
2023/12/06 05:33:15;;;;;;;0.75;0.70;;;;;;;15.49;100.00;101137.22;10448681;28;20049;-82
2023/12/06 05:38:16;;;;;;;0.47;0.47;;;;;;;16.59;100.00;101135.44;10470553;28;20136;-82
2023/12/06 05:43:18;;;;;;;0.10;0.10;;;;;;;16.17;100.00;101136.91;10468321;28;20495;-83
2023/12/06 05:48:20;;;;;;;0.17;0.17;;;;;;;15.36;100.00;101150.94;10460495;28;20048;-83
2023/12/06 05:53:23;;;;;;;0.17;0.17;;;;;;;15.30;100.00;101149.16;10462482;28;20411;-83
2023/12/06 05:58:25;;;;;;;0.60;0.50;;;;;;;14.83;100.00;101149.47;10463407;28;20557;-82
2023/12/06 06:03:34;;;;;;;0.65;0.65;;;;;;;14.37;100.00;101157.50;10449576;28;20408;-83
2023/12/06 06:08:36;;;;;;;0.37;0.37;;;;;;;14.80;100.00;101160.69;10455151;28;20447;-82
2023/12/06 06:13:38;;;;;;;5.85;1.02;;;;;;;14.48;100.00;101168.91;10449088;28;20079;-83
2023/12/06 06:18:40;;;;;;;1.73;1.27;;;;;;;15.79;100.00;101172.13;10449884;28;20056;-83
2023/12/06 06:23:43;;;;;;;0.20;0.20;;;;;;;16.28;100.00;101175.97;10433786;28;20103;-83
2023/12/06 06:28:45;;;;;;;0.20;0.20;;;;;;;15.90;100.00;101182.63;10453041;28;20415;-83
2023/12/06 06:33:47;;;;;;;0.90;0.30;;;;;;;16.59;100.00;101184.84;10435706;28;20047;-83
2023/12/06 06:38:49;;;;;;;0.55;0.45;;;;;;;15.62;100.00;101197.06;10466522;28;20040;-83
2023/12/06 06:43:51;;;;;;;0.25;0.25;;;;;;;15.76;100.00;101198.06;10424727;28;20128;-83
2023/12/06 06:48:56;;;;;;;0.28;0.28;;;;;;;15.01;100.00;101196.41;10438148;28;20045;-83
2023/12/06 06:53:58;;;;;;;0.00;0.00;;;;;;;16.08;100.00;101194.91;10470371;28;20048;-83
2023/12/06 06:59:00;;;;;;;1.08;0.88;;;;;;;15.23;100.00;101205.31;10441266;28;20069;-83
2023/12/06 07:04:03;;;;;;;3.28;3.05;;;;;;;15.96;100.00;101200.88;10432962;28;20045;-83
2023/12/06 07:09:05;;;;;;;0.25;0.25;;;;;;;15.80;100.00;101220.63;10458980;28;20055;-83
2023/12/06 07:14:07;;;;;;;0.80;0.30;;;;;;;15.95;100.00;101226.84;10451154;28;20133;-83
2023/12/06 07:19:10;;;;;;;0.25;0.20;;;;;;;15.57;100.00;101232.50;10458975;28;20044;-83
2023/12/06 07:24:12;;;;;;;1.08;0.63;;;;;;;15.41;100.00;101237.53;10451893;28;20139;-83
2023/12/06 07:29:14;;;;;;;0.57;0.57;;;;;;;14.85;100.00;101247.25;10460445;28;20049;-82
2023/12/06 07:34:17;;;;;;;0.00;0.00;;;;;;;15.03;100.00;101250.91;10427179;28;20052;-82
2023/12/06 07:39:24;;;;;;;0.65;0.55;;;;;;;15.06;100.00;101250.97;10465658;28;20122;-80
2023/12/06 07:44:26;;;;;;;0.85;0.47;;;;;;;15.82;100.00;101257.84;10458898;28;20102;-83
2023/12/06 07:49:28;;;;;;;0.52;0.50;;;;;;;15.08;100.00;101270.00;10454502;28;20174;-81
2023/12/06 07:54:29;;;;;;;0.22;0.20;;;;;;;15.51;100.00;101270.56;10451474;28;20044;-82
2023/12/06 07:59:31;;;;;;;0.00;0.00;;;;;;;15.78;100.00;101276.88;10450460;28;20132;-82
2023/12/06 08:04:33;;;;;;;0.95;0.57;;;;;;;15.52;100.00;101277.50;10454863;28;20045;-83
2023/12/06 08:09:35;;;;;;;0.25;0.25;;;;;;;15.23;100.00;101279.72;10462197;28;20135;-82
2023/12/06 08:14:39;;;;;;;0.10;0.10;;;;;;;15.15;100.00;101289.13;10466354;28;20040;-83
2023/12/06 08:19:41;;;;;;;0.20;0.20;;;;;;;15.57;100.00;101300.88;10453686;28;20571;-83
2023/12/06 08:24:43;;;;;;;0.00;0.00;;;;;;;14.99;100.00;101301.03;10432839;28;20045;-83
2023/12/06 08:29:45;;;;;;;0.20;0.20;;;;;;;16.29;100.00;101298.19;10450243;28;20060;-83
2023/12/06 08:34:47;;;;;;;0.47;0.32;;;;;;;15.11;100.00;101300.34;10447450;28;20091;-82
2023/12/06 08:39:49;;;;;;;0.25;0.25;;;;;;;15.33;100.00;101304.94;10444996;28;20402;-83
2023/12/06 08:44:53;;;;;;;0.05;0.05;;;;;;;16.14;100.00;101304.13;10457192;28;20041;-83
2023/12/06 08:49:58;;;;;;;0.25;0.25;;;;;;;16.04;100.00;101310.09;10441717;28;20048;-80
2023/12/06 08:55:00;;;;;;;0.28;0.28;;;;;;;16.23;100.00;101307.66;10440836;28;20055;-81
2023/12/06 09:00:07;;;;;;;0.00;0.00;;;;;;;16.25;100.00;101311.16;10452712;28;20072;-81
2023/12/06 09:05:11;;;;;;;0.30;0.20;;;;;;;15.59;100.00;101308.72;10452397;28;20175;-80
2023/12/06 09:10:13;;;;;;;0.00;0.00;;;;;;;15.25;100.00;101313.47;10459988;28;20142;-82
2023/12/06 09:15:16;;;;;;;0.40;0.40;;;;;;;15.55;100.00;101313.84;10459587;28;20041;-83
2023/12/06 09:20:18;;;;;;;0.88;0.45;;;;;;;16.06;100.00;101312.72;10451701;28;20129;-83
2023/12/06 09:25:20;;;;;;;0.28;0.28;;;;;;;15.69;100.00;101326.13;10459439;28;20037;-83
2023/12/06 09:30:22;;;;;;;1.67;1.30;;;;;;;15.72;100.00;101341.75;10445246;28;20055;-81
2023/12/06 09:35:24;;;;;;;0.38;0.35;;;;;;;16.04;100.00;101341.28;10430789;28;20522;-81
2023/12/06 09:40:26;;;;;;;0.55;0.55;;;;;;;15.43;100.00;101341.38;10470248;28;20085;-80
2023/12/06 09:45:29;;;;;;;0.40;0.40;;;;;;;15.39;100.00;101343.06;10450140;28;20033;-81
2023/12/06 09:50:31;;;;;;;0.35;0.35;;;;;;;15.89;100.00;101348.91;10455889;28;20055;-81
2023/12/06 09:55:35;;;;;;;0.43;0.43;;;;;;;15.41;100.00;101356.97;10426345;28;20491;-81
2023/12/06 10:00:37;;;;;;;0.80;0.80;;;;;;;15.06;100.00;101366.00;10443801;28;20044;-81
2023/12/06 10:05:40;;;;;;;1.10;0.90;;;;;;;15.67;100.00;101369.41;10471982;28;20037;-81
2023/12/06 10:10:42;;;;;;;0.20;0.17;;;;;;;15.08;100.00;101363.41;10440698;28;20037;-81
2023/12/06 10:15:44;;;;;;;0.35;0.35;;;;;;;15.65;100.00;101365.91;10450812;28;20044;-81
2023/12/06 10:20:46;;;;;;;0.38;0.38;;;;;;;16.01;100.00;101369.81;10422038;28;20041;-81
2023/12/06 10:25:50;;;;;;;0.68;0.15;;;;;;;15.42;100.00;101374.28;10446976;28;20061;-83
2023/12/06 10:31:05;;;;;;;2.20;0.22;;;;;;;15.99;100.00;101361.13;10439459;28;20045;-83
2023/12/06 10:36:09;;;;;;;0.45;0.35;;;;;;;15.52;100.00;101360.59;10428765;28;20053;-83
2023/12/06 10:41:11;;;;;;;1.40;1.30;;;;;;;14.87;100.00;101372.63;10442288;28;20041;-81
2023/12/06 10:46:15;;;;;;;0.10;0.10;;;;;;;14.98;100.00;101371.94;10430693;28;20072;-82
2023/12/06 10:51:17;;;;;;;0.15;0.15;;;;;;;16.39;100.00;101365.84;10433055;28;20476;-83
2023/12/06 10:56:20;;;;;;;1.60;1.00;;;;;;;15.70;100.00;101374.63;10437024;28;20095;-82
2023/12/06 11:01:23;;;;;;;1.92;0.95;;;;;;;15.83;100.00;101386.94;10455260;28;20128;-82
2023/12/06 11:06:44;;;;;;;1.92;0.50;;;;;;;16.26;100.00;101380.50;10460434;28;20044;-83
2023/12/06 11:11:56;;;;;;;0.00;0.00;;;;;;;15.69;100.00;101384.16;10429662;28;20484;-81
2023/12/06 11:17:28;;;;;;;0.25;0.25;;;;;;;16.27;100.00;101383.09;10438203;28;20041;-83
2023/12/06 11:22:30;;;;;;;0.82;0.82;;;;;;;15.54;100.00;101368.38;10444069;28;20064;-83
2023/12/06 11:27:33;;;;;;;0.28;0.28;;;;;;;15.88;100.00;101367.94;10444359;28;20044;-83
2023/12/06 11:32:43;;;;;;;0.88;0.75;;;;;;;15.55;100.00;101370.13;10428344;28;20045;-82
2023/12/06 11:37:54;;;;;;;2.85;1.58;;;;;;;16.38;100.00;101365.00;10448590;28;20095;-83
2023/12/06 11:42:58;;;;;;;0.63;0.60;;;;;;;16.56;100.00;101373.84;10461185;28;20033;-83
2023/12/06 11:48:02;;;;;;;0.38;0.10;;;;;;;17.20;100.00;101372.59;10448613;28;20047;-82
2023/12/06 11:53:04;;;;;;;0.45;0.25;;;;;;;17.28;100.00;101371.75;10448770;28;20045;-81
2023/12/06 11:58:11;;;;;;;1.10;1.00;;;;;;;16.69;100.00;101393.88;10449466;28;20511;-80
2023/12/06 12:03:14;;;;;;;0.22;0.20;;;;;;;16.54;100.00;101389.41;10441882;28;20049;-80
2023/12/06 12:08:17;;;;;;;0.00;0.00;;;;;;;17.55;100.00;101379.69;10444569;28;20057;-82
2023/12/06 12:13:20;;;;;;;1.65;0.88;;;;;;;16.69;100.00;101396.47;10447297;28;20407;-82
2023/12/06 12:18:24;;;;;;;0.75;0.38;;;;;;;16.62;100.00;101392.09;10420403;28;20045;-81
2023/12/06 12:23:27;;;;;;;0.28;0.28;;;;;;;16.61;100.00;101390.34;10437697;28;20518;-81
2023/12/06 12:28:30;;;;;;;0.50;0.50;;;;;;;16.25;100.00;101402.13;10436532;28;20041;-80
2023/12/06 12:33:32;;;;;;;1.45;0.73;;;;;;;17.28;100.00;101402.16;10430537;28;20124;-81
2023/12/06 12:38:38;;;;;;;1.38;1.02;;;;;;;17.16;100.00;101404.69;10440877;28;20060;-81
2023/12/06 12:43:40;;;;;;;1.05;0.98;;;;;;;16.69;100.00;101409.50;10441224;28;20037;-81
2023/12/06 12:48:42;;;;;;;1.65;1.00;;;;;;;16.91;100.00;101412.28;10428692;28;20044;-81
2023/12/06 12:53:46;;;;;;;0.40;0.40;;;;;;;17.34;100.00;101407.38;10448418;28;20048;-81
2023/12/06 12:58:48;;;;;;;2.13;1.17;;;;;;;16.89;100.00;101404.47;10439891;28;20036;-81
2023/12/06 13:03:51;;;;;;;0.52;0.40;;;;;;;16.65;100.00;101399.91;10414741;28;20099;-80
2023/12/06 13:08:58;;;;;;;1.05;0.85;;;;;;;16.98;100.00;101405.44;10427099;28;20045;-81
2023/12/06 13:14:01;;;;;;;0.63;0.25;;;;;;;16.58;100.00;101400.72;10438161;28;20072;-81
2023/12/06 13:19:03;;;;;;;2.30;1.08;;;;;;;15.97;100.00;101413.09;10438268;28;20136;-81
2023/12/06 13:24:08;;;;;;;0.57;0.50;;;;;;;16.30;100.00;101413.44;10431197;28;20086;-81
2023/12/06 13:29:10;;;;;;;0.20;0.20;;;;;;;16.75;100.00;101417.34;10446462;28;20056;-82
2023/12/06 13:34:11;;;;;;;0.63;0.47;;;;;;;17.12;100.00;101415.06;10442294;28;20066;-81
2023/12/06 13:39:13;;;;;;;0.57;0.38;;;;;;;16.27;100.00;101429.03;10450067;28;20111;-81
2023/12/06 13:44:16;;;;;;;0.40;0.38;;;;;;;16.45;100.00;101426.63;10438781;28;20103;-81
2023/12/06 13:49:18;;;;;;;6.68;1.85;;;;;;;16.67;100.00;101419.00;10433812;28;20069;-81
2023/12/06 13:54:21;;;;;;;2.13;1.27;;;;;;;16.33;100.00;101429.94;10444854;28;20064;-81
2023/12/06 13:59:23;;;;;;;0.47;0.40;;;;;;;16.75;100.00;101427.75;10443871;28;20571;-81
2023/12/06 14:04:24;;;;;;;0.55;0.55;;;;;;;17.07;100.00;101440.19;10435703;28;20045;-81
2023/12/06 14:09:27;;;;;;;0.60;0.60;;;;;;;16.73;100.00;101447.66;10427597;28;20049;-81
2023/12/06 14:14:29;;;;;;;0.88;0.65;;;;;;;17.34;100.00;101442.97;10427317;28;20094;-80
2023/12/06 14:19:31;;;;;;;1.00;0.90;;;;;;;17.01;100.00;101447.97;10467039;28;20076;-83
2023/12/06 14:24:33;;;;;;;0.38;0.28;;;;;;;17.83;100.00;101460.63;10440714;28;20049;-80
2023/12/06 14:29:34;;;;;;;0.32;0.32;;;;;;;17.77;100.00;101449.28;10413371;28;20059;-80
2023/12/06 14:34:36;;;;;;;0.25;0.25;;;;;;;17.74;100.00;101446.69;10447387;28;20051;-80
2023/12/06 14:39:38;;;;;;;1.35;0.77;;;;;;;17.07;100.00;101461.03;10441355;28;20061;-80
2023/12/06 14:44:40;;;;;;;0.13;0.13;;;;;;;16.93;100.00;101462.66;10445194;28;20060;-79
2023/12/06 14:49:42;;;;;;;0.40;0.32;;;;;;;16.57;100.00;101464.88;10432487;28;20128;-80
2023/12/06 14:54:43;;;;;;;1.05;0.95;;;;;;;16.45;100.00;101476.03;10447811;28;20057;-81
2023/12/06 14:59:45;;;;;;;0.32;0.30;;;;;;;16.59;100.00;101477.88;10469609;28;20043;-80
2023/12/06 15:04:47;;;;;;;1.17;0.47;;;;;;;16.20;100.00;101480.06;10457400;28;20049;-81
2023/12/06 15:09:49;;;;;;;0.52;0.52;;;;;;;16.64;100.00;101497.91;10457041;28;20056;-80
2023/12/06 15:14:51;;;;;;;0.17;0.17;;;;;;;16.76;100.00;101510.16;10438290;28;20037;-81
2023/12/06 15:19:53;;;;;;;0.30;0.17;;;;;;;16.29;100.00;101526.09;10440380;28;20046;-81
2023/12/06 15:24:55;;;;;;;0.63;0.63;;;;;;;16.09;100.00;101533.63;10426623;28;20075;-81
2023/12/06 15:29:57;;;;;;;0.50;0.35;;;;;;;17.25;98.75;101542.72;10443761;28;20053;-81
2023/12/06 15:34:59;;;;;;;4.72;1.42;;;;;;;17.18;99.56;101540.94;10444482;28;20052;-81
2023/12/06 15:40:02;;;;;;;0.22;0.22;;;;;;;17.44;98.47;101544.63;10444044;28;20135;-81
2023/12/06 15:45:04;;;;;;;0.47;0.47;;;;;;;17.48;97.98;101555.06;10453758;28;20060;-81
2023/12/06 15:50:06;;;;;;;1.40;0.15;;;;;;;16.98;99.53;101554.66;10433593;28;20048;-80
2023/12/06 15:55:08;;;;;;;0.45;0.45;;;;;;;16.73;98.94;101569.09;10450163;28;20048;-81
2023/12/06 16:00:11;;;;;;;0.57;0.57;;;;;;;16.89;99.79;101575.34;10446453;28;20122;-80
2023/12/06 16:05:13;;;;;;;0.20;0.20;;;;;;;17.34;100.00;101574.06;10453417;28;20561;-80
2023/12/06 16:10:16;;;;;;;0.45;0.45;;;;;;;16.55;100.00;101574.97;10450212;28;20040;-80
2023/12/06 16:15:18;;;;;;;0.40;0.40;;;;;;;17.05;99.11;101577.28;10447404;28;20037;-80
2023/12/06 16:20:19;;;;;;;0.00;0.00;;;;;;;17.28;98.58;101584.44;10446003;28;20049;-80
2023/12/06 16:25:22;;;;;;;1.13;0.60;;;;;;;16.80;99.04;101591.72;10454813;28;20044;-80
2023/12/06 16:30:24;;;;;;;2.35;0.90;;;;;;;17.02;98.98;101598.06;10448591;28;20072;-80
2023/12/06 16:35:28;;;;;;;0.13;0.13;;;;;;;16.76;99.89;101601.22;10463585;28;20037;-81
2023/12/06 16:40:29;;;;;;;0.00;0.00;;;;;;;16.67;100.00;101614.13;10441608;28;20094;-80
2023/12/06 16:45:34;;;;;;;0.45;0.30;;;;;;;16.80;99.82;101623.81;10454528;28;20037;-81
2023/12/06 16:50:36;;;;;;;0.28;0.28;;;;;;;16.83;100.00;101632.53;10444975;28;20119;-80
2023/12/06 16:55:38;;;;;;;0.08;0.08;;;;;;;18.06;98.05;101632.84;10445597;28;20162;-80
2023/12/06 17:00:53;;;;;;;0.55;0.55;;;;;;;16.76;99.23;101640.25;10452736;28;20041;-82
2023/12/06 17:05:56;;;;;;;0.22;0.22;;;;;;;17.62;98.29;101642.00;10448854;28;20052;-80
2023/12/06 17:10:58;;;;;;;0.30;0.30;;;;;;;17.59;98.34;101652.44;10443012;28;20040;-80
2023/12/06 17:16:00;;;;;;;0.22;0.22;;;;;;;17.30;99.19;101655.66;10434616;28;20075;-80
2023/12/06 17:21:02;;;;;;;0.15;0.15;;;;;;;17.24;98.59;101655.56;10463414;28;20073;-80
2023/12/06 17:26:04;;;;;;;0.47;0.47;;;;;;;16.74;99.66;101665.38;10453842;28;20044;-80
2023/12/06 17:31:06;;;;;;;0.00;0.00;;;;;;;16.38;100.00;101669.25;10432190;28;20482;-80
2023/12/06 17:36:10;;;;;;;2.10;1.48;;;;;;;16.83;99.85;101664.63;10447628;28;20045;-80
2023/12/06 17:41:14;;;;;;;0.08;0.08;;;;;;;17.34;98.85;101667.81;10429868;28;20044;-80
2023/12/06 17:46:16;;;;;;;3.30;2.45;;;;;;;17.84;96.67;101665.66;10446993;28;20053;-80
2023/12/06 17:51:18;;;;;;;0.50;0.50;;;;;;;17.18;97.15;101671.13;10446271;28;20541;-80
2023/12/06 17:56:19;;;;;;;0.90;0.85;;;;;;;17.43;96.85;101675.72;10445065;28;20043;-80
2023/12/06 18:01:22;;;;;;;0.08;0.08;;;;;;;17.12;94.87;101677.16;10444066;28;20135;-80
2023/12/06 18:06:25;;;;;;;3.25;0.35;;;;;;;16.03;96.67;101700.81;10454273;28;20037;-80
2023/12/06 18:11:26;;;;;;;0.55;0.40;;;;;;;16.68;95.68;101706.94;10428075;28;20124;-80
2023/12/06 18:16:28;;;;;;;0.30;0.08;;;;;;;16.50;96.27;101705.81;10445070;28;20033;-82
2023/12/06 18:21:30;;;;;;;0.08;0.08;;;;;;;16.99;94.62;101711.69;10420585;28;20059;-80
2023/12/06 18:26:32;;;;;;;1.17;0.70;;;;;;;16.48;95.50;101717.94;10437103;28;20037;-80
2023/12/06 18:31:38;;;;;;;0.45;0.45;;;;;;;15.96;96.13;101719.75;10440552;28;20057;-80
2023/12/06 18:36:40;;;;;;;4.57;3.70;;;;;;;15.63;97.07;101723.47;10450177;28;20435;-81
2023/12/06 18:41:42;;;;;;;0.68;0.43;;;;;;;15.62;96.61;101729.50;10444506;28;20048;-80
2023/12/06 18:46:45;;;;;;;0.00;0.00;;;;;;;15.96;97.45;101736.19;10452309;28;20045;-80
2023/12/06 18:51:48;;;;;;;0.85;0.85;;;;;;;17.03;92.84;101745.59;10437995;28;20049;-80
2023/12/06 18:56:50;;;;;;;0.52;0.45;;;;;;;15.80;96.55;101750.63;10445133;28;20029;-80
2023/12/06 19:01:52;;;;;;;0.73;0.40;;;;;;;15.49;98.11;101750.06;10450349;28;20440;-80
2023/12/06 19:06:54;;;;;;;0.30;0.30;;;;;;;15.68;97.43;101758.16;10443081;28;20070;-80
2023/12/06 19:11:56;;;;;;;1.13;0.63;;;;;;;16.54;96.30;101750.09;10459316;28;20044;-80
2023/12/06 19:16:58;;;;;;;0.10;0.10;;;;;;;15.00;97.91;101764.66;10462636;28;20449;-80
2023/12/06 19:22:01;;;;;;;0.28;0.28;;;;;;;17.08;96.01;101766.47;10458397;28;20072;-80
2023/12/06 19:27:03;;;;;;;0.00;0.00;;;;;;;18.52;92.18;101754.84;10453583;28;20052;-80
2023/12/06 19:32:06;;;;;;;0.00;0.00;;;;;;;17.70;92.66;101754.16;10456047;28;20134;-80
2023/12/06 19:37:08;;;;;;;1.55;0.65;;;;;;;16.17;95.79;101758.19;10460130;28;20131;-80
2023/12/06 19:42:10;;;;;;;1.33;1.23;;;;;;;16.40;97.64;101763.78;10449964;28;20484;-80
2023/12/06 19:47:12;;;;;;;0.00;0.00;;;;;;;16.07;96.76;101770.16;10446491;28;20045;-80
2023/12/06 19:52:16;;;;;;;0.30;0.30;;;;;;;17.16;92.18;101777.00;10426151;28;20480;-81
2023/12/06 19:57:18;;;;;;;0.20;0.20;;;;;;;17.13;90.79;101778.69;10447792;28;20045;-80
2023/12/06 20:02:20;;;;;;;0.10;0.10;;;;;;;16.86;92.18;101780.91;10438460;28;20095;-81
2023/12/06 20:07:22;;;;;;;0.38;0.38;;;;;;;16.75;90.32;101784.22;10442392;28;20047;-81
2023/12/06 20:12:24;;;;;;;0.00;0.00;;;;;;;16.34;91.41;101794.88;10449449;28;20075;-80
2023/12/06 20:17:26;;;;;;;0.03;0.03;;;;;;;15.35;93.89;101798.25;10474072;28;20033;-80
2023/12/06 20:22:28;;;;;;;0.00;0.00;;;;;;;17.07;91.97;101791.66;10449618;28;20036;-80
2023/12/06 20:27:31;;;;;;;0.47;0.47;;;;;;;16.92;90.16;101791.41;10450514;28;20044;-80
2023/12/06 20:32:33;;;;;;;1.95;0.55;;;;;;;16.91;90.65;101797.47;10443014;28;20044;-80
2023/12/06 20:37:35;;;;;;;0.10;0.10;;;;;;;16.44;91.02;101799.38;10443101;28;20127;-80
2023/12/06 20:42:37;;;;;;;0.10;0.10;;;;;;;15.86;92.23;101813.13;10472448;28;20110;-80
2023/12/06 20:47:39;;;;;;;0.00;0.00;;;;;;;17.06;90.34;101808.13;10446528;28;20049;-81
2023/12/06 20:52:41;;;;;;;0.85;0.60;;;;;;;14.93;94.73;101804.28;10449256;28;20051;-80
2023/12/06 20:57:44;;;;;;;0.22;0.22;;;;;;;16.88;91.78;101797.41;10439463;28;20503;-81
2023/12/06 21:02:46;;;;;;;0.30;0.30;;;;;;;16.81;89.61;101812.94;10454219;28;20037;-80
2023/12/06 21:07:49;;;;;;;0.85;0.85;;;;;;;13.36;95.56;101817.50;10450177;28;20385;-81
2023/12/06 21:12:51;;;;;;;0.35;0.30;;;;;;;14.32;95.99;101800.22;10437217;28;20117;-81
2023/12/06 21:17:53;;;;;;;0.10;0.10;;;;;;;15.39;95.11;101810.44;10438668;28;20052;-81
2023/12/06 21:22:56;;;;;;;0.00;0.00;;;;;;;14.93;95.07;101815.50;10457392;28;20495;-81
2023/12/06 21:27:58;;;;;;;0.20;0.20;;;;;;;15.31;93.16;101819.78;10449420;28;20041;-81
2023/12/06 21:33:00;;;;;;;0.20;0.20;;;;;;;16.11;90.98;101818.78;10448784;28;20056;-80
2023/12/06 21:38:02;;;;;;;1.17;0.55;;;;;;;16.49;89.52;101820.25;10449553;28;20053;-80
2023/12/06 21:43:04;;;;;;;0.00;0.00;;;;;;;16.80;88.76;101824.19;10444970;28;20033;-80
2023/12/06 21:48:06;;;;;;;0.80;0.47;;;;;;;16.80;88.80;101826.78;10430915;28;20582;-80
2023/12/06 21:53:07;;;;;;;0.10;0.10;;;;;;;15.23;93.05;101827.41;10418684;28;20080;-80
2023/12/06 21:58:09;;;;;;;0.17;0.15;;;;;;;15.38;92.54;101829.44;10458159;28;20121;-80
2023/12/06 22:03:11;;;;;;;0.00;0.00;;;;;;;13.72;96.99;101837.53;10447958;28;20041;-80
2023/12/06 22:08:13;;;;;;;1.60;1.15;;;;;;;16.26;92.08;101832.88;10454819;28;20043;-81
2023/12/06 22:13:15;;;;;;;0.73;0.63;;;;;;;15.71;93.22;101843.97;10427600;28;20159;-80
2023/12/06 22:18:17;;;;;;;0.00;0.00;;;;;;;16.87;88.89;101842.50;10442394;28;20167;-80
2023/12/06 22:23:19;;;;;;;0.13;0.13;;;;;;;14.58;95.37;101849.25;10437358;28;20064;-80
2023/12/06 22:28:22;;;;;;;0.20;0.20;;;;;;;13.64;96.42;101871.84;10447441;28;20128;-81
2023/12/06 22:33:24;;;;;;;2.15;0.95;;;;;;;14.08;96.34;101873.03;10451083;28;20128;-81
2023/12/06 22:38:25;;;;;;;0.52;0.52;;;;;;;13.79;99.32;101881.75;10449578;28;20491;-82
2023/12/06 22:43:27;;;;;;;0.68;0.40;;;;;;;14.28;97.94;101877.03;10478649;28;20065;-81
2023/12/06 22:48:29;;;;;;;4.05;1.10;;;;;;;14.08;98.09;101878.22;10447989;28;20606;-81
2023/12/06 22:53:31;;;;;;;0.63;0.52;;;;;;;14.98;96.50;101878.75;10454504;28;20033;-81
2023/12/06 22:58:32;;;;;;;0.60;0.38;;;;;;;14.76;96.97;101885.19;10451707;28;20051;-81